Strona główna
METAR-TAF:

METAR-TAF

Lotnisko :

Port lotniczy Laoag

Laoag, Filipiny

Szerokość geograficzna: 18-11N, Długość geograficzna: 120-32E, wysokość: 4 m

Aktualna obserwacja pogody

Raport powstał 39 minut temu, godzina 18:00 UTC
Wiatr 2 kt z kierunków zmiennych
Temperatura 23°C
Wilgotność 78%
Ciśnienie 1013 hPa
Widzialność 10 km lub więcej
Mało chmury na wysokości 1800 ft

METAR: RPLI 111800Z VRB02KT 9999 FEW018 23/19 Q1013 NOSIG RMK A2991

czas: 02:39 (18:39 UTC)

Prognoza

Raport powstał 1 godzina i 39 minut temu, godzina 17:00 UTC
Prognoza ważna od 11 godzina 18 UTC do 12 godzina 18 UTC
Wiatr 8 kt od północno-północny zachód
Widzialność 10 km lub więcej
Mało chmury na wysokości 1800 ft
Przejściowo
od 11 godzina 18 UTC do 11 godzina 24 UTC
Wiatr 2 kt z kierunków zmiennych

TAF: RPLI 111700Z 1118/1218 33008KT 9999 FEW018 TEMPO 1118/1124 VRB02KT

Obserwacja i prognoza pogody dla ponad 4000 lotnisk (raport METAR i TAF).

Dostępne stacje oznaczono żółtymi i czerwonymi punktami na mapie.

Najedź kursorem aby zobaczyć nazwę stacji.

Kliknij aby zobaczyć obserwacje i prognozy pogody.

Aby zmienić mapę: kliknij na zielony przycisk z czarnym krzyżykiem, aby powiększyć; na zielony przycisk z myślnikiem, aby pomniejszyć; na zielone strzałki, aby przejść do map sąsiednich.


METAR-TAF: